sensor_id;sensor_type;location;lat;lon;timestamp;pressure;altitude;pressure_sealevel;temperature;humidity
20987;BME280;10652;50.306;8.570;2022-11-20T00:02:27;97503.13;;;2.16;93.73
20987;BME280;10652;50.306;8.570;2022-11-20T00:06:29;97504.13;;;2.07;95.20
20987;BME280;10652;50.306;8.570;2022-11-20T00:10:32;97509.97;;;2.20;97.90
20987;BME280;10652;50.306;8.570;2022-11-20T00:14:34;97500.06;;;2.46;99.37
20987;BME280;10652;50.306;8.570;2022-11-20T00:18:36;97493.81;;;2.62;98.42
20987;BME280;10652;50.306;8.570;2022-11-20T00:22:38;97498.91;;;2.67;97.87
20987;BME280;10652;50.306;8.570;2022-11-20T00:26:40;97488.41;;;2.75;98.36
20987;BME280;10652;50.306;8.570;2022-11-20T00:30:43;97482.31;;;2.77;98.17
20987;BME280;10652;50.306;8.570;2022-11-20T00:34:45;97476.34;;;2.77;98.16
20987;BME280;10652;50.306;8.570;2022-11-20T00:38:47;97469.38;;;2.80;98.34
20987;BME280;10652;50.306;8.570;2022-11-20T00:42:49;97465.94;;;2.78;98.48
20987;BME280;10652;50.306;8.570;2022-11-20T00:46:51;97471.19;;;2.75;98.86
20987;BME280;10652;50.306;8.570;2022-11-20T00:50:53;97474.50;;;2.82;99.56
20987;BME280;10652;50.306;8.570;2022-11-20T00:54:55;97464.06;;;2.86;99.36
20987;BME280;10652;50.306;8.570;2022-11-20T00:59:00;97461.72;;;2.73;98.01
20987;BME280;10652;50.306;8.570;2022-11-20T01:03:02;97459.28;;;2.66;99.41
20987;BME280;10652;50.306;8.570;2022-11-20T01:07:04;97462.59;;;2.73;99.49
20987;BME280;10652;50.306;8.570;2022-11-20T01:11:18;97465.16;;;2.73;99.44
20987;BME280;10652;50.306;8.570;2022-11-20T01:15:21;97457.47;;;2.72;100.00
20987;BME280;10652;50.306;8.570;2022-11-20T01:19:23;97467.63;;;2.81;100.00
20987;BME280;10652;50.306;8.570;2022-11-20T01:23:26;97465.81;;;2.86;100.00
20987;BME280;10652;50.306;8.570;2022-11-20T01:27:28;97450.28;;;2.87;100.00
20987;BME280;10652;50.306;8.570;2022-11-20T01:31:32;97458.81;;;2.91;99.84
20987;BME280;10652;50.306;8.570;2022-11-20T01:35:34;97453.00;;;2.80;99.69
20987;BME280;10652;50.306;8.570;2022-11-20T01:39:36;97453.25;;;2.66;99.67
20987;BME280;10652;50.306;8.570;2022-11-20T01:43:38;97454.97;;;2.67;100.00
20987;BME280;10652;50.306;8.570;2022-11-20T01:47:44;97456.53;;;2.74;100.00
20987;BME280;10652;50.306;8.570;2022-11-20T01:51:52;97445.25;;;2.80;100.00
20987;BME280;10652;50.306;8.570;2022-11-20T01:55:56;97443.44;;;2.83;100.00
20987;BME280;10652;50.306;8.570;2022-11-20T02:00:06;97437.47;;;2.81;100.00
20987;BME280;10652;50.306;8.570;2022-11-20T02:04:16;97446.22;;;2.73;99.99
20987;BME280;10652;50.306;8.570;2022-11-20T02:08:19;97458.41;;;2.67;100.00
20987;BME280;10652;50.306;8.570;2022-11-20T02:12:21;97454.81;;;2.73;100.00
20987;BME280;10652;50.306;8.570;2022-11-20T02:16:47;97457.41;;;2.73;100.00
20987;BME280;10652;50.306;8.570;2022-11-20T02:20:54;97455.06;;;2.61;98.25
20987;BME280;10652;50.306;8.570;2022-11-20T02:24:59;97455.50;;;2.34;98.65
20987;BME280;10652;50.306;8.570;2022-11-20T02:29:03;97460.81;;;2.26;98.76
20987;BME280;10652;50.306;8.570;2022-11-20T02:33:05;97453.34;;;2.06;98.58
20987;BME280;10652;50.306;8.570;2022-11-20T02:37:07;97455.47;;;1.82;99.85
20987;BME280;10652;50.306;8.570;2022-11-20T02:41:09;97452.19;;;1.69;99.74
20987;BME280;10652;50.306;8.570;2022-11-20T02:45:11;97445.41;;;1.63;100.00
20987;BME280;10652;50.306;8.570;2022-11-20T02:49:13;97448.97;;;1.53;100.00
20987;BME280;10652;50.306;8.570;2022-11-20T02:53:15;97445.59;;;1.48;100.00
20987;BME280;10652;50.306;8.570;2022-11-20T02:57:18;97450.75;;;1.50;100.00
20987;BME280;10652;50.306;8.570;2022-11-20T03:01:20;97430.22;;;1.39;100.00
20987;BME280;10652;50.306;8.570;2022-11-20T03:05:22;97443.88;;;1.47;100.00
20987;BME280;10652;50.306;8.570;2022-11-20T03:09:24;97434.94;;;1.72;100.00
20987;BME280;10652;50.306;8.570;2022-11-20T03:13:26;97426.09;;;1.87;100.00
20987;BME280;10652;50.306;8.570;2022-11-20T03:17:28;97422.66;;;1.87;100.00
20987;BME280;10652;50.306;8.570;2022-11-20T03:21:33;97434.50;;;2.03;100.00
20987;BME280;10652;50.306;8.570;2022-11-20T03:25:35;97436.00;;;2.17;100.00
20987;BME280;10652;50.306;8.570;2022-11-20T03:29:37;97438.31;;;2.33;100.00
20987;BME280;10652;50.306;8.570;2022-11-20T03:33:41;97440.69;;;2.45;100.00
20987;BME280;10652;50.306;8.570;2022-11-20T03:37:43;97439.69;;;2.53;100.00
20987;BME280;10652;50.306;8.570;2022-11-20T03:41:47;97433.66;;;2.53;100.00
20987;BME280;10652;50.306;8.570;2022-11-20T03:45:49;97435.63;;;2.40;100.00
20987;BME280;10652;50.306;8.570;2022-11-20T03:49:51;97418.69;;;2.21;99.73
20987;BME280;10652;50.306;8.570;2022-11-20T03:53:55;97424.03;;;2.10;100.00
20987;BME280;10652;50.306;8.570;2022-11-20T03:57:57;97417.00;;;2.20;100.00
20987;BME280;10652;50.306;8.570;2022-11-20T04:01:59;97414.41;;;2.20;100.00
20987;BME280;10652;50.306;8.570;2022-11-20T04:06:10;97414.41;;;2.20;100.00
20987;BME280;10652;50.306;8.570;2022-11-20T04:10:12;97414.91;;;2.42;100.00
20987;BME280;10652;50.306;8.570;2022-11-20T04:14:15;97408.84;;;2.43;100.00
20987;BME280;10652;50.306;8.570;2022-11-20T04:18:17;97411.28;;;2.50;100.00
20987;BME280;10652;50.306;8.570;2022-11-20T04:22:19;97404.47;;;2.46;100.00
20987;BME280;10652;50.306;8.570;2022-11-20T04:26:23;97403.69;;;2.43;100.00
20987;BME280;10652;50.306;8.570;2022-11-20T04:30:25;97406.34;;;2.38;100.00
20987;BME280;10652;50.306;8.570;2022-11-20T04:34:27;97396.31;;;2.21;100.00
20987;BME280;10652;50.306;8.570;2022-11-20T04:38:29;97393.66;;;2.24;100.00
20987;BME280;10652;50.306;8.570;2022-11-20T04:42:31;97387.47;;;2.36;100.00
20987;BME280;10652;50.306;8.570;2022-11-20T04:46:39;97397.66;;;2.42;100.00
20987;BME280;10652;50.306;8.570;2022-11-20T04:50:41;97400.25;;;2.44;100.00
20987;BME280;10652;50.306;8.570;2022-11-20T04:54:43;97408.72;;;2.50;100.00
20987;BME280;10652;50.306;8.570;2022-11-20T04:58:45;97393.88;;;2.61;100.00
20987;BME280;10652;50.306;8.570;2022-11-20T05:02:47;97392.78;;;2.73;100.00
20987;BME280;10652;50.306;8.570;2022-11-20T05:06:50;97382.50;;;2.72;100.00
20987;BME280;10652;50.306;8.570;2022-11-20T05:10:52;97386.84;;;2.68;100.00
20987;BME280;10652;50.306;8.570;2022-11-20T05:14:54;97391.31;;;2.60;100.00
20987;BME280;10652;50.306;8.570;2022-11-20T05:18:56;97388.75;;;2.60;100.00
20987;BME280;10652;50.306;8.570;2022-11-20T05:22:58;97393.03;;;2.61;100.00
20987;BME280;10652;50.306;8.570;2022-11-20T05:27:00;97401.03;;;2.46;100.00
20987;BME280;10652;50.306;8.570;2022-11-20T05:31:09;97406.34;;;2.38;100.00
20987;BME280;10652;50.306;8.570;2022-11-20T05:35:12;97404.78;;;2.31;100.00
20987;BME280;10652;50.306;8.570;2022-11-20T05:39:14;97400.00;;;2.07;100.00
20987;BME280;10652;50.306;8.570;2022-11-20T05:43:16;97407.00;;;1.99;100.00
20987;BME280;10652;50.306;8.570;2022-11-20T05:47:18;97402.06;;;1.84;100.00
20987;BME280;10652;50.306;8.570;2022-11-20T05:51:20;97400.28;;;1.89;100.00
20987;BME280;10652;50.306;8.570;2022-11-20T05:55:22;97401.94;;;1.93;100.00
20987;BME280;10652;50.306;8.570;2022-11-20T05:59:24;97403.63;;;1.95;100.00
20987;BME280;10652;50.306;8.570;2022-11-20T06:03:26;97405.25;;;2.01;100.00
20987;BME280;10652;50.306;8.570;2022-11-20T06:07:28;97394.75;;;2.13;100.00
20987;BME280;10652;50.306;8.570;2022-11-20T06:11:30;97391.06;;;2.26;100.00
20987;BME280;10652;50.306;8.570;2022-11-20T06:15:32;97387.56;;;2.30;100.00
20987;BME280;10652;50.306;8.570;2022-11-20T06:19:34;97384.84;;;2.38;100.00
20987;BME280;10652;50.306;8.570;2022-11-20T06:23:37;97380.44;;;2.44;100.00
20987;BME280;10652;50.306;8.570;2022-11-20T06:27:39;97371.63;;;2.54;100.00
20987;BME280;10652;50.306;8.570;2022-11-20T06:31:41;97364.59;;;2.62;100.00
20987;BME280;10652;50.306;8.570;2022-11-20T06:35:44;97367.94;;;2.67;100.00
20987;BME280;10652;50.306;8.570;2022-11-20T06:39:46;97358.38;;;2.71;100.00
20987;BME280;10652;50.306;8.570;2022-11-20T06:43:48;97356.56;;;2.76;100.00
20987;BME280;10652;50.306;8.570;2022-11-20T06:47:51;97350.41;;;2.82;100.00
20987;BME280;10652;50.306;8.570;2022-11-20T06:51:53;97357.19;;;2.89;100.00
20987;BME280;10652;50.306;8.570;2022-11-20T06:55:56;97364.06;;;2.90;100.00
20987;BME280;10652;50.306;8.570;2022-11-20T06:59:59;97356.13;;;2.97;100.00
20987;BME280;10652;50.306;8.570;2022-11-20T07:04:01;97370.97;;;2.88;100.00
20987;BME280;10652;50.306;8.570;2022-11-20T07:08:03;97374.69;;;2.75;100.00
20987;BME280;10652;50.306;8.570;2022-11-20T07:12:06;97380.44;;;2.90;100.00
20987;BME280;10652;50.306;8.570;2022-11-20T07:16:08;97379.38;;;2.99;100.00
20987;BME280;10652;50.306;8.570;2022-11-20T07:20:11;97380.78;;;3.15;100.00
20987;BME280;10652;50.306;8.570;2022-11-20T07:24:13;97382.41;;;3.19;100.00
20987;BME280;10652;50.306;8.570;2022-11-20T07:28:15;97378.09;;;3.20;100.00
20987;BME280;10652;50.306;8.570;2022-11-20T07:32:17;97383.44;;;3.12;100.00
20987;BME280;10652;50.306;8.570;2022-11-20T07:36:19;97386.13;;;3.06;100.00
20987;BME280;10652;50.306;8.570;2022-11-20T07:40:21;97390.44;;;3.07;100.00
20987;BME280;10652;50.306;8.570;2022-11-20T07:44:23;97391.22;;;3.10;100.00
20987;BME280;10652;50.306;8.570;2022-11-20T07:48:25;97393.78;;;3.12;100.00
20987;BME280;10652;50.306;8.570;2022-11-20T07:52:28;97403.53;;;2.98;100.00
20987;BME280;10652;50.306;8.570;2022-11-20T07:56:30;97412.94;;;3.02;100.00
20987;BME280;10652;50.306;8.570;2022-11-20T08:00:32;97417.06;;;3.10;100.00
20987;BME280;10652;50.306;8.570;2022-11-20T08:04:34;97423.97;;;3.51;100.00
20987;BME280;10652;50.306;8.570;2022-11-20T08:08:36;97419.38;;;3.66;100.00
20987;BME280;10652;50.306;8.570;2022-11-20T08:12:49;97418.22;;;3.79;100.00
20987;BME280;10652;50.306;8.570;2022-11-20T08:17:09;97409.00;;;4.04;100.00
20987;BME280;10652;50.306;8.570;2022-11-20T08:21:12;97425.31;;;4.08;100.00
20987;BME280;10652;50.306;8.570;2022-11-20T08:25:14;97415.84;;;4.07;100.00
20987;BME280;10652;50.306;8.570;2022-11-20T08:29:16;97423.50;;;4.11;100.00
20987;BME280;10652;50.306;8.570;2022-11-20T08:33:18;97425.88;;;4.20;100.00
20987;BME280;10652;50.306;8.570;2022-11-20T08:37:20;97424.47;;;4.42;100.00
20987;BME280;10652;50.306;8.570;2022-11-20T08:41:22;97431.34;;;4.43;100.00
20987;BME280;10652;50.306;8.570;2022-11-20T08:45:28;97439.16;;;4.42;100.00
20987;BME280;10652;50.306;8.570;2022-11-20T08:49:35;97438.03;;;4.54;100.00
20987;BME280;10652;50.306;8.570;2022-11-20T08:53:38;97434.06;;;4.73;100.00
20987;BME280;10652;50.306;8.570;2022-11-20T08:57:40;97432.19;;;4.78;100.00
20987;BME280;10652;50.306;8.570;2022-11-20T09:01:48;97438.84;;;4.88;99.68
20987;BME280;10652;50.306;8.570;2022-11-20T09:05:50;97440.31;;;4.98;98.71
20987;BME280;10652;50.306;8.570;2022-11-20T09:09:52;97431.47;;;5.05;97.63
20987;BME280;10652;50.306;8.570;2022-11-20T09:14:14;97437.31;;;5.13;96.99
20987;BME280;10652;50.306;8.570;2022-11-20T09:18:17;97441.44;;;5.20;96.33
20987;BME280;10652;50.306;8.570;2022-11-20T09:22:19;97437.50;;;5.36;95.52
20987;BME280;10652;50.306;8.570;2022-11-20T09:26:21;97433.59;;;5.53;95.39
20987;BME280;10652;50.306;8.570;2022-11-20T09:30:23;97432.97;;;5.74;94.78
20987;BME280;10652;50.306;8.570;2022-11-20T09:34:25;97434.16;;;5.93;94.12
20987;BME280;10652;50.306;8.570;2022-11-20T09:38:27;97436.22;;;6.10;93.06
20987;BME280;10652;50.306;8.570;2022-11-20T09:42:45;97442.88;;;6.18;94.05
20987;BME280;10652;50.306;8.570;2022-11-20T09:46:56;97442.84;;;6.20;93.37
20987;BME280;10652;50.306;8.570;2022-11-20T09:55:21;97427.19;;;6.48;92.43
20987;BME280;10652;50.306;8.570;2022-11-20T09:59:32;97429.59;;;6.80;93.25
20987;BME280;10652;50.306;8.570;2022-11-20T10:07:58;97433.81;;;6.58;88.74
20987;BME280;10652;50.306;8.570;2022-11-20T10:12:31;97437.53;;;6.23;88.02
20987;BME280;10652;50.306;8.570;2022-11-20T10:21:11;97438.63;;;5.88;88.37
20987;BME280;10652;50.306;8.570;2022-11-20T10:25:24;97434.63;;;5.76;89.98
20987;BME280;10652;50.306;8.570;2022-11-20T10:29:32;97425.91;;;5.77;90.67
20987;BME280;10652;50.306;8.570;2022-11-20T10:33:39;97427.66;;;5.77;90.97
20987;BME280;10652;50.306;8.570;2022-11-20T10:38:24;97420.59;;;5.82;91.15
20987;BME280;10652;50.306;8.570;2022-11-20T10:42:39;97410.97;;;5.86;91.50
20987;BME280;10652;50.306;8.570;2022-11-20T10:46:44;97415.50;;;5.79;90.39
20987;BME280;10652;50.306;8.570;2022-11-20T10:50:57;97420.59;;;5.82;91.19
20987;BME280;10652;50.306;8.570;2022-11-20T10:59:55;97400.00;;;5.76;91.64
20987;BME280;10652;50.306;8.570;2022-11-20T11:04:01;97389.78;;;5.70;92.20
20987;BME280;10652;50.306;8.570;2022-11-20T11:08:09;97399.56;;;5.62;92.10
20987;BME280;10652;50.306;8.570;2022-11-20T11:12:13;97392.09;;;5.51;92.58
20987;BME280;10652;50.306;8.570;2022-11-20T11:16:21;97397.28;;;5.51;93.99
20987;BME280;10652;50.306;8.570;2022-11-20T11:20:25;97403.03;;;5.62;95.00
20987;BME280;10652;50.306;8.570;2022-11-20T11:24:29;97396.59;;;5.74;94.02
20987;BME280;10652;50.306;8.570;2022-11-20T11:29:00;97378.28;;;5.78;94.01
20987;BME280;10652;50.306;8.570;2022-11-20T11:33:09;97381.78;;;6.05;94.10
20987;BME280;10652;50.306;8.570;2022-11-20T11:37:21;97370.72;;;6.27;92.36
20987;BME280;10652;50.306;8.570;2022-11-20T11:41:25;97362.38;;;6.42;92.42
20987;BME280;10652;50.306;8.570;2022-11-20T11:45:29;97363.97;;;6.46;91.14
20987;BME280;10652;50.306;8.570;2022-11-20T11:49:31;97368.19;;;6.23;90.44
20987;BME280;10652;50.306;8.570;2022-11-20T11:53:39;97358.50;;;6.29;92.21
20987;BME280;10652;50.306;8.570;2022-11-20T11:57:51;97354.81;;;6.36;91.71
20987;BME280;10652;50.306;8.570;2022-11-20T12:01:59;97346.38;;;6.54;92.58
20987;BME280;10652;50.306;8.570;2022-11-20T12:06:14;97344.56;;;6.56;91.46
20987;BME280;10652;50.306;8.570;2022-11-20T12:10:23;97330.09;;;6.49;91.12
20987;BME280;10652;50.306;8.570;2022-11-20T12:14:37;97339.53;;;6.51;91.08
20987;BME280;10652;50.306;8.570;2022-11-20T12:18:42;97327.38;;;6.52;91.48
20987;BME280;10652;50.306;8.570;2022-11-20T12:22:59;97318.34;;;6.62;91.34
20987;BME280;10652;50.306;8.570;2022-11-20T12:36:13;97344.22;;;5.89;94.00
20987;BME280;10652;50.306;8.570;2022-11-20T12:58:10;97318.03;;;6.71;95.01
20987;BME280;10652;50.306;8.570;2022-11-20T13:02:25;97308.81;;;6.62;94.24
20987;BME280;10652;50.306;8.570;2022-11-20T13:06:29;97303.97;;;6.52;95.00
20987;BME280;10652;50.306;8.570;2022-11-20T13:10:39;97299.09;;;6.43;95.00
20987;BME280;10652;50.306;8.570;2022-11-20T13:19:18;97294.09;;;6.12;96.26
20987;BME280;10652;50.306;8.570;2022-11-20T13:23:25;97299.81;;;5.95;97.05
20987;BME280;10652;50.306;8.570;2022-11-20T13:27:27;97294.88;;;5.88;97.67
20987;BME280;10652;50.306;8.570;2022-11-20T13:31:34;97284.66;;;5.81;99.22
20987;BME280;10652;50.306;8.570;2022-11-20T13:35:41;97284.00;;;5.75;99.44
20987;BME280;10652;50.306;8.570;2022-11-20T13:39:43;97290.91;;;5.76;100.00
20987;BME280;10652;50.306;8.570;2022-11-20T13:43:46;97288.25;;;5.77;100.00
20987;BME280;10652;50.306;8.570;2022-11-20T13:47:50;97276.72;;;5.86;100.00
20987;BME280;10652;50.306;8.570;2022-11-20T13:52:20;97272.66;;;5.77;100.00
20987;BME280;10652;50.306;8.570;2022-11-20T14:00:56;97252.75;;;5.78;100.00
20987;BME280;10652;50.306;8.570;2022-11-20T14:05:00;97256.22;;;5.77;100.00
20987;BME280;10652;50.306;8.570;2022-11-20T14:09:03;97242.16;;;5.84;100.00
20987;BME280;10652;50.306;8.570;2022-11-20T14:13:19;97244.59;;;5.90;100.00
20987;BME280;10652;50.306;8.570;2022-11-20T14:17:29;97234.09;;;5.93;100.00
20987;BME280;10652;50.306;8.570;2022-11-20T14:21:31;97236.78;;;5.90;100.00
20987;BME280;10652;50.306;8.570;2022-11-20T14:25:33;97231.69;;;5.87;100.00
20987;BME280;10652;50.306;8.570;2022-11-20T14:29:37;97219.88;;;5.77;100.00
20987;BME280;10652;50.306;8.570;2022-11-20T14:33:40;97220.81;;;5.74;100.00
20987;BME280;10652;50.306;8.570;2022-11-20T14:37:42;97225.22;;;5.72;100.00
20987;BME280;10652;50.306;8.570;2022-11-20T14:41:50;97224.47;;;5.69;100.00
20987;BME280;10652;50.306;8.570;2022-11-20T14:46:05;97225.47;;;5.65;100.00
20987;BME280;10652;50.306;8.570;2022-11-20T14:50:21;97212.63;;;5.60;100.00
20987;BME280;10652;50.306;8.570;2022-11-20T14:54:24;97182.47;;;5.56;100.00
20987;BME280;10652;50.306;8.570;2022-11-20T14:58:32;97175.75;;;5.51;100.00
20987;BME280;10652;50.306;8.570;2022-11-20T15:02:42;97186.19;;;5.49;100.00
20987;BME280;10652;50.306;8.570;2022-11-20T15:06:53;97183.69;;;5.46;100.00
20987;BME280;10652;50.306;8.570;2022-11-20T15:10:56;97187.16;;;5.45;100.00
20987;BME280;10652;50.306;8.570;2022-11-20T15:14:58;97175.84;;;5.48;100.00
20987;BME280;10652;50.306;8.570;2022-11-20T15:19:03;97174.88;;;5.50;100.00
20987;BME280;10652;50.306;8.570;2022-11-20T15:23:18;97169.81;;;5.47;100.00
20987;BME280;10652;50.306;8.570;2022-11-20T15:27:21;97168.94;;;5.47;100.00
20987;BME280;10652;50.306;8.570;2022-11-20T15:31:23;97166.63;;;5.39;100.00
20987;BME280;10652;50.306;8.570;2022-11-20T15:35:25;97164.16;;;5.34;100.00
20987;BME280;10652;50.306;8.570;2022-11-20T15:39:27;97159.16;;;5.28;100.00
20987;BME280;10652;50.306;8.570;2022-11-20T15:43:29;97159.16;;;5.28;100.00
20987;BME280;10652;50.306;8.570;2022-11-20T15:47:33;97146.22;;;5.27;100.00
20987;BME280;10652;50.306;8.570;2022-11-20T15:51:38;97132.50;;;5.23;100.00
20987;BME280;10652;50.306;8.570;2022-11-20T15:55:41;97140.31;;;5.23;100.00
20987;BME280;10652;50.306;8.570;2022-11-20T15:59:43;97142.97;;;5.22;100.00
20987;BME280;10652;50.306;8.570;2022-11-20T16:03:45;97124.00;;;5.20;100.00
20987;BME280;10652;50.306;8.570;2022-11-20T16:07:47;97126.63;;;5.18;100.00
20987;BME280;10652;50.306;8.570;2022-11-20T16:11:49;97115.34;;;5.19;100.00
20987;BME280;10652;50.306;8.570;2022-11-20T16:15:56;97110.97;;;5.21;100.00
20987;BME280;10652;50.306;8.570;2022-11-20T16:19:58;97117.06;;;5.20;100.00
20987;BME280;10652;50.306;8.570;2022-11-20T16:24:03;97101.34;;;5.25;100.00
20987;BME280;10652;50.306;8.570;2022-11-20T16:28:05;97095.00;;;5.33;100.00
20987;BME280;10652;50.306;8.570;2022-11-20T16:32:07;97086.38;;;5.31;100.00
20987;BME280;10652;50.306;8.570;2022-11-20T16:36:14;97086.38;;;5.31;100.00
20987;BME280;10652;50.306;8.570;2022-11-20T16:40:17;97087.25;;;5.32;100.00
20987;BME280;10652;50.306;8.570;2022-11-20T16:44:19;97084.72;;;5.30;100.00
20987;BME280;10652;50.306;8.570;2022-11-20T16:48:21;97076.94;;;5.30;100.00
20987;BME280;10652;50.306;8.570;2022-11-20T16:52:23;97076.00;;;5.31;100.00
20987;BME280;10652;50.306;8.570;2022-11-20T16:56:26;97077.63;;;5.35;100.00
20987;BME280;10652;50.306;8.570;2022-11-20T17:00:28;97087.94;;;5.37;100.00
20987;BME280;10652;50.306;8.570;2022-11-20T17:04:30;97086.72;;;5.47;100.00
20987;BME280;10652;50.306;8.570;2022-11-20T17:08:33;97093.78;;;5.68;100.00
20987;BME280;10652;50.306;8.570;2022-11-20T17:12:35;97092.44;;;5.81;100.00
20987;BME280;10652;50.306;8.570;2022-11-20T17:16:37;97086.13;;;5.90;100.00
20987;BME280;10652;50.306;8.570;2022-11-20T17:20:39;97068.41;;;6.00;100.00
20987;BME280;10652;50.306;8.570;2022-11-20T17:24:41;97057.81;;;6.06;100.00
20987;BME280;10652;50.306;8.570;2022-11-20T17:28:45;97053.34;;;6.09;100.00
20987;BME280;10652;50.306;8.570;2022-11-20T17:32:47;97047.06;;;6.15;100.00
20987;BME280;10652;50.306;8.570;2022-11-20T17:36:49;97043.28;;;6.23;100.00
20987;BME280;10652;50.306;8.570;2022-11-20T17:40:51;97035.22;;;6.31;100.00
20987;BME280;10652;50.306;8.570;2022-11-20T17:44:54;97034.22;;;6.34;100.00
20987;BME280;10652;50.306;8.570;2022-11-20T17:48:56;97036.69;;;6.37;100.00
20987;BME280;10652;50.306;8.570;2022-11-20T17:52:58;97024.56;;;6.37;100.00
20987;BME280;10652;50.306;8.570;2022-11-20T17:57:00;97019.31;;;6.39;100.00
20987;BME280;10652;50.306;8.570;2022-11-20T18:01:21;97010.59;;;6.40;100.00
20987;BME280;10652;50.306;8.570;2022-11-20T18:05:25;97011.50;;;6.39;100.00
20987;BME280;10652;50.306;8.570;2022-11-20T18:09:27;96996.03;;;6.36;100.00
20987;BME280;10652;50.306;8.570;2022-11-20T18:13:30;96984.97;;;6.31;100.00
20987;BME280;10652;50.306;8.570;2022-11-20T18:17:52;96983.41;;;6.27;100.00
20987;BME280;10652;50.306;8.570;2022-11-20T18:21:54;96972.06;;;6.28;100.00
20987;BME280;10652;50.306;8.570;2022-11-20T18:25:59;96954.00;;;6.24;100.00
20987;BME280;10652;50.306;8.570;2022-11-20T18:30:01;96951.41;;;6.24;100.00
20987;BME280;10652;50.306;8.570;2022-11-20T18:34:03;96952.25;;;6.25;100.00
20987;BME280;10652;50.306;8.570;2022-11-20T18:38:05;96934.91;;;6.25;100.00
20987;BME280;10652;50.306;8.570;2022-11-20T18:42:15;96928.06;;;6.23;100.00
20987;BME280;10652;50.306;8.570;2022-11-20T18:46:35;96929.75;;;6.24;100.00
20987;BME280;10652;50.306;8.570;2022-11-20T18:50:37;96908.91;;;6.25;100.00
20987;BME280;10652;50.306;8.570;2022-11-20T18:54:39;96907.44;;;6.18;100.00
20987;BME280;10652;50.306;8.570;2022-11-20T18:58:41;96910.25;;;6.14;100.00
20987;BME280;10652;50.306;8.570;2022-11-20T19:02:43;96899.00;;;6.13;100.00
20987;BME280;10652;50.306;8.570;2022-11-20T19:06:46;96887.78;;;6.13;100.00
20987;BME280;10652;50.306;8.570;2022-11-20T19:10:50;96893.84;;;6.34;100.00
20987;BME280;10652;50.306;8.570;2022-11-20T19:14:53;96896.59;;;6.31;100.00
20987;BME280;10652;50.306;8.570;2022-11-20T19:18:55;96893.38;;;6.24;100.00
20987;BME280;10652;50.306;8.570;2022-11-20T19:22:58;96893.31;;;6.25;100.00
20987;BME280;10652;50.306;8.570;2022-11-20T19:27:00;96880.34;;;6.25;100.00
20987;BME280;10652;50.306;8.570;2022-11-20T19:31:07;96881.19;;;6.26;100.00
20987;BME280;10652;50.306;8.570;2022-11-20T19:35:09;96870.97;;;6.21;100.00
20987;BME280;10652;50.306;8.570;2022-11-20T19:39:11;96862.31;;;6.21;100.00
20987;BME280;10652;50.306;8.570;2022-11-20T19:43:13;96851.22;;;6.17;100.00
20987;BME280;10652;50.306;8.570;2022-11-20T19:47:15;96840.22;;;6.11;100.00
20987;BME280;10652;50.306;8.570;2022-11-20T19:51:20;96836.91;;;6.07;100.00
20987;BME280;10652;50.306;8.570;2022-11-20T19:55:22;96823.81;;;6.09;100.00
20987;BME280;10652;50.306;8.570;2022-11-20T19:59:25;96816.03;;;6.09;100.00
20987;BME280;10652;50.306;8.570;2022-11-20T20:03:27;96820.28;;;6.11;100.00
20987;BME280;10652;50.306;8.570;2022-11-20T20:07:29;96817.47;;;6.16;100.00
20987;BME280;10652;50.306;8.570;2022-11-20T20:11:32;96807.78;;;6.19;100.00
20987;BME280;10652;50.306;8.570;2022-11-20T20:15:39;96804.16;;;6.23;100.00
20987;BME280;10652;50.306;8.570;2022-11-20T20:19:41;96789.22;;;6.29;100.00
20987;BME280;10652;50.306;8.570;2022-11-20T20:23:44;96789.88;;;6.34;100.00
20987;BME280;10652;50.306;8.570;2022-11-20T20:27:46;96782.72;;;6.39;100.00
20987;BME280;10652;50.306;8.570;2022-11-20T20:31:48;96779.09;;;6.43;100.00
20987;BME280;10652;50.306;8.570;2022-11-20T20:35:51;96786.69;;;6.47;100.00
20987;BME280;10652;50.306;8.570;2022-11-20T20:39:53;96790.91;;;6.50;100.00
20987;BME280;10652;50.306;8.570;2022-11-20T20:43:55;96786.53;;;6.50;100.00
20987;BME280;10652;50.306;8.570;2022-11-20T20:48:18;96770.09;;;6.50;100.00
20987;BME280;10652;50.306;8.570;2022-11-20T20:52:20;96777.91;;;6.50;100.00
20987;BME280;10652;50.306;8.570;2022-11-20T20:56:22;96781.28;;;6.52;100.00
20987;BME280;10652;50.306;8.570;2022-11-20T21:00:24;96773.47;;;6.52;100.00
20987;BME280;10652;50.306;8.570;2022-11-20T21:04:26;96793.25;;;6.56;100.00
20987;BME280;10652;50.306;8.570;2022-11-20T21:08:29;96788.03;;;6.56;100.00
20987;BME280;10652;50.306;8.570;2022-11-20T21:12:31;96791.53;;;6.55;100.00
20987;BME280;10652;50.306;8.570;2022-11-20T21:16:33;96779.47;;;6.54;100.00
20987;BME280;10652;50.306;8.570;2022-11-20T21:20:43;96776.56;;;6.80;100.00
20987;BME280;10652;50.306;8.570;2022-11-20T21:25:04;96768.06;;;6.77;100.00
20987;BME280;10652;50.306;8.570;2022-11-20T21:29:06;96771.78;;;6.71;100.00
20987;BME280;10652;50.306;8.570;2022-11-20T21:33:08;96775.28;;;6.70;100.00
20987;BME280;10652;50.306;8.570;2022-11-20T21:37:10;96775.34;;;6.68;100.00
20987;BME280;10652;50.306;8.570;2022-11-20T21:41:13;96775.47;;;6.65;100.00
20987;BME280;10652;50.306;8.570;2022-11-20T21:45:16;96784.13;;;6.66;100.00
20987;BME280;10652;50.306;8.570;2022-11-20T21:49:18;96766.69;;;6.68;100.00
20987;BME280;10652;50.306;8.570;2022-11-20T21:53:20;96766.69;;;6.68;100.00
20987;BME280;10652;50.306;8.570;2022-11-20T21:57:22;96758.06;;;6.67;100.00
20987;BME280;10652;50.306;8.570;2022-11-20T22:01:26;96759.03;;;6.65;100.00
20987;BME280;10652;50.306;8.570;2022-11-20T22:05:29;96763.53;;;6.61;100.00
20987;BME280;10652;50.306;8.570;2022-11-20T22:09:31;96764.63;;;6.56;100.00
20987;BME280;10652;50.306;8.570;2022-11-20T22:13:33;96753.69;;;6.49;100.00
20987;BME280;10652;50.306;8.570;2022-11-20T22:17:54;96761.03;;;6.40;100.00
20987;BME280;10652;50.306;8.570;2022-11-20T22:22:14;96754.13;;;6.39;100.00
20987;BME280;10652;50.306;8.570;2022-11-20T22:26:18;96749.00;;;6.37;100.00
20987;BME280;10652;50.306;8.570;2022-11-20T22:30:20;96751.78;;;6.33;100.00
20987;BME280;10652;50.306;8.570;2022-11-20T22:34:22;96758.94;;;6.28;100.00